Terminal Aerodrome Forecast
Issued by NWS Brownsville, TX

Home | Current Version | Previous Version | Text Only | Print | Product List | Glossary On
Versions: 1 2 3 4 5 6 7 8 9 10 11 12 13 14 15 16 17 18
000
FTUS44 KBRO 050525
TAFHRL
TAF
KHRL 050525Z 0506/0606 14009KT P6SM SKC
     FM051500 15015G21KT P6SM SCT050
     FM060200 14009KT P6SM SKC=

USA.gov is the U.S. government's official web portal to all federal, state and local government web resources and services.